Air Navigation Services of Czech Republic
Airport: LKCV Updated:  15.09.2019 22:00:26  UTC
 METAR LKCV 15.09. 22:00 ...
METAR LKCV 152200Z 24008KT CAVOK 18/12 Q1019 NOSIG RMK BLU BLU=
 TAF LKCV 15.09. 17:00 ...
TAF LKCV 151700Z 1518/1618 25006KT CAVOK      BECMG 1609/1611 31006KT SCT040=